This is the latest recevied weather packets stored in our database for station/object AL7BX-WX. If no packets are shown the sender has not sent any weather packets the latest 10 day(s).
| Time | Temp. | Humidity | Pressure | Rain* | Wind** | Luminosity | Snow |
|---|---|---|---|---|---|---|---|
| 1777532403 | 4.44° C | 49% | 0 hPa | 0 mm | - | - | - |
| 1777531503 | 5° C | 49% | 0 hPa | 0 mm | - | - | - |
| 1777531093 | 5.56° C | 48% | 0 hPa | 0 mm | - | - | - |
| 1777529343 | 6.67° C | 44% | 0 hPa | 0 mm | - | - | - |
| 1777527363 | 7.22° C | 43% | 0 hPa | 0 mm | - | - | - |
| 1777525743 | 7.78° C | 45% | 0 hPa | 0 mm | - | - | - |
| 1777525203 | 7.78° C | 43% | 0 hPa | 0 mm | - | - | - |
| 1777523353 | 10° C | 38% | 0 hPa | 0 mm | - | - | - |
| 1777519753 | 11.67° C | 35% | 0 hPa | 0 mm | - | - | - |
| 1777517643 | 12.22° C | 33% | 0 hPa | 0 mm | - | - | - |
| 1777517103 | 12.78° C | 33% | 0 hPa | 0 mm | - | - | - |
| 1777512963 | 14.44° C | 31% | 0 hPa | 0 mm | - | - | - |
| 1777512423 | 14.44° C | 31% | 0 hPa | 0 mm | - | - | - |
| 1777509363 | 17.22° C | 28% | 0 hPa | 0 mm | - | - | - |
| 1777506303 | 17.22° C | 28% | 0 hPa | 0 mm | - | - | - |
| 1777505223 | 16.67° C | 26% | 0 hPa | 0 mm | - | - | - |
| 1777504683 | 17.22° C | 24% | 0 hPa | 0 mm | - | - | - |
| 1777503603 | 17.22° C | 27% | 0 hPa | 0 mm | - | - | - |
| 1777503373 | 17.22° C | 26% | 0 hPa | 0 mm | - | - | - |
| 1777500543 | 18.33° C | 25% | 0 hPa | 0 mm | - | - | - |
| 1777499234 | 18.33° C | 26% | 0 hPa | 0 mm | - | - | - |
| 1777496943 | 17.22° C | 28% | 0 hPa | 0 mm | - | - | - |
| 1777495093 | 17.78° C | 30% | 0 hPa | 0 mm | - | - | - |
| 1777493883 | 17.22° C | 32% | 0 hPa | 0 mm | - | - | - |
| 1777490283 | 16.11° C | 36% | 0 hPa | 0 mm | - | - | - |
* Rain latest hour (hover to see other rain measurements)
** Current wind speed in m/s (hover to see current wind gust speed)